createdAt,value
2023-04-22T00:00:16.942Z,12.34
2023-04-22T00:02:45.865Z,12.24
2023-04-22T00:05:20.271Z,12.21
2023-04-22T00:07:49.708Z,12.18
2023-04-22T00:10:18.340Z,12.19
2023-04-22T00:12:46.994Z,12.18
2023-04-22T00:15:15.682Z,12.13
2023-04-22T00:17:45.942Z,12.09
2023-04-22T00:20:16.378Z,12.05
2023-04-22T00:22:45.063Z,12.08
2023-04-22T00:25:13.658Z,12.05
2023-04-22T00:27:42.323Z,12.03
2023-04-22T00:30:11.623Z,12.05
2023-04-22T00:32:40.273Z,12.02
2023-04-22T00:35:09.597Z,12.01
2023-04-22T00:37:39.566Z,12.01
2023-04-22T00:40:09.503Z,11.97
2023-04-22T00:42:38.603Z,11.95
2023-04-22T00:45:11.608Z,11.90
2023-04-22T00:47:40.311Z,11.86
2023-04-22T00:50:09.784Z,11.84
2023-04-22T00:52:39.939Z,11.79
2023-04-22T00:55:09.543Z,11.75
2023-04-22T00:57:38.350Z,11.73
2023-04-22T01:00:09.784Z,11.66
2023-04-22T01:02:39.114Z,11.68
2023-04-22T01:05:09.935Z,11.66
2023-04-22T01:07:39.850Z,11.63
2023-04-22T01:10:09.422Z,11.64
2023-04-22T01:12:38.182Z,11.57
2023-04-22T01:15:08.626Z,11.60
2023-04-22T01:17:37.229Z,11.55
2023-04-22T01:20:10.313Z,11.53
2023-04-22T01:22:43.298Z,11.58
2023-04-22T01:25:13.490Z,11.54
2023-04-22T01:27:42.197Z,11.50
2023-04-22T01:30:11.983Z,11.47
2023-04-22T01:32:40.954Z,11.44
2023-04-22T01:35:10.075Z,11.46
2023-04-22T01:37:39.447Z,11.40
2023-04-22T01:40:10.748Z,11.44
2023-04-22T01:42:40.680Z,11.43
2023-04-22T01:45:10.496Z,11.37
2023-04-22T01:47:39.158Z,11.37
2023-04-22T01:50:08.864Z,11.41
2023-04-22T01:52:37.932Z,11.39
2023-04-22T01:55:07.805Z,11.38
2023-04-22T01:57:36.392Z,11.35
2023-04-22T02:00:09.322Z,11.38
2023-04-22T02:02:38.082Z,11.41
2023-04-22T02:05:08.079Z,11.39
2023-04-22T02:07:37.300Z,11.42
2023-04-22T02:10:06.660Z,11.40
2023-04-22T02:12:35.298Z,11.47
2023-04-22T02:15:04.104Z,11.46
2023-04-22T02:17:34.140Z,11.46
2023-04-22T02:20:04.918Z,11.48
2023-04-22T02:22:34.342Z,11.39
2023-04-22T02:25:03.274Z,11.35
2023-04-22T02:27:31.971Z,11.32
2023-04-22T02:30:00.891Z,11.29
2023-04-22T02:32:29.497Z,11.20
2023-04-22T02:34:59.571Z,11.22
2023-04-22T02:37:28.228Z,11.21
2023-04-22T02:39:56.845Z,11.18
2023-04-22T02:42:25.467Z,11.08
2023-04-22T02:44:54.155Z,11.10
2023-04-22T02:47:23.033Z,11.10
2023-04-22T02:49:51.789Z,11.07
2023-04-22T02:52:21.745Z,11.08
2023-04-22T02:54:51.416Z,11.06
2023-04-22T02:57:20.244Z,11.04
2023-04-22T02:59:48.937Z,11.00
2023-04-22T03:02:17.644Z,10.96
2023-04-22T03:04:46.304Z,10.91
2023-04-22T03:07:14.921Z,10.88
2023-04-22T03:09:44.877Z,10.90
2023-04-22T03:12:13.506Z,10.96
2023-04-22T03:14:42.063Z,11.01
2023-04-22T03:17:10.670Z,11.02
2023-04-22T03:19:39.777Z,11.02
2023-04-22T03:22:08.615Z,10.98
2023-04-22T03:24:37.380Z,10.98
2023-04-22T03:27:07.521Z,10.91
2023-04-22T03:29:36.165Z,10.85
2023-04-22T03:32:04.864Z,10.86
2023-04-22T03:34:34.625Z,10.88
2023-04-22T03:37:05.196Z,10.84
2023-04-22T03:39:33.797Z,10.95
2023-04-22T03:42:02.623Z,10.94
2023-04-22T03:44:32.629Z,10.85
2023-04-22T03:47:01.241Z,10.79
2023-04-22T03:49:30.570Z,10.72
2023-04-22T03:51:59.279Z,10.71
2023-04-22T03:54:28.173Z,10.63
2023-04-22T03:56:56.807Z,10.60
2023-04-22T03:59:25.429Z,10.50
2023-04-22T04:01:55.393Z,10.48
2023-04-22T04:04:24.771Z,10.44
2023-04-22T04:06:54.031Z,10.43
2023-04-22T04:09:22.604Z,10.42
2023-04-22T04:11:51.192Z,10.41
2023-04-22T04:14:19.822Z,10.39
2023-04-22T04:16:48.569Z,10.37
2023-04-22T04:19:18.519Z,10.36
2023-04-22T04:21:47.221Z,10.37
2023-04-22T04:24:15.820Z,10.34
2023-04-22T04:26:44.460Z,10.33
2023-04-22T04:29:13.579Z,10.31
2023-04-22T04:31:42.433Z,10.30
2023-04-22T04:34:11.030Z,10.34
2023-04-22T04:36:41.024Z,10.26
2023-04-22T04:39:09.653Z,10.24
2023-04-22T04:41:38.637Z,10.20
2023-04-22T04:44:07.316Z,10.19
2023-04-22T04:46:37.495Z,10.19
2023-04-22T04:49:06.151Z,10.12
2023-04-22T04:51:34.782Z,10.10
2023-04-22T04:54:04.911Z,10.11
2023-04-22T04:56:33.537Z,10.05
2023-04-22T04:59:02.161Z,10.06
2023-04-22T05:01:30.769Z,9.98
2023-04-22T05:03:59.510Z,9.84
2023-04-22T05:06:28.220Z,9.98
2023-04-22T05:08:56.802Z,9.99
2023-04-22T05:11:26.814Z,10.06
2023-04-22T05:13:55.379Z,10.06
2023-04-22T05:16:23.977Z,10.08
2023-04-22T05:18:52.622Z,10.04
2023-04-22T05:21:21.266Z,10.05
2023-04-22T05:23:49.856Z,10.05
2023-04-22T05:26:18.502Z,10.13
2023-04-22T05:28:48.409Z,10.04
2023-04-22T05:31:16.987Z,10.08
2023-04-22T05:33:45.562Z,9.88
2023-04-22T05:36:14.192Z,9.81
2023-04-22T05:38:42.828Z,9.81
2023-04-22T05:41:11.471Z,9.79
2023-04-22T05:43:40.130Z,9.84
2023-04-22T05:46:10.215Z,9.83
2023-04-22T05:48:38.894Z,9.87
2023-04-22T05:51:07.526Z,9.93
2023-04-22T05:53:36.161Z,9.96
2023-04-22T05:56:04.905Z,9.99
2023-04-22T05:58:33.591Z,9.99
2023-04-22T06:01:02.444Z,10.03
2023-04-22T06:03:32.605Z,10.07
2023-04-22T06:06:01.664Z,10.15
2023-04-22T06:08:32.129Z,10.17
2023-04-22T06:11:00.786Z,10.19
2023-04-22T06:13:29.396Z,10.32
2023-04-22T06:15:58.149Z,10.32
2023-04-22T06:18:28.098Z,10.34
2023-04-22T06:20:58.396Z,10.49
2023-04-22T06:23:26.999Z,10.56
2023-04-22T06:25:55.646Z,10.65
2023-04-22T06:28:24.311Z,10.79
2023-04-22T06:30:52.907Z,10.76
2023-04-22T06:33:21.650Z,10.76
2023-04-22T06:35:50.567Z,10.91
2023-04-22T06:38:20.612Z,11.03
2023-04-22T06:40:49.224Z,11.13
2023-04-22T06:43:17.966Z,11.30
2023-04-22T06:45:46.619Z,11.44
2023-04-22T06:48:15.486Z,11.47
2023-04-22T06:50:44.034Z,11.38
2023-04-22T06:53:12.650Z,11.51
2023-04-22T06:55:42.675Z,11.63
2023-04-22T06:58:11.264Z,11.60
2023-04-22T07:00:39.870Z,11.65
2023-04-22T07:03:08.684Z,11.75
2023-04-22T07:05:39.181Z,11.76
2023-04-22T07:08:08.387Z,11.87
2023-04-22T07:10:37.037Z,11.85
2023-04-22T07:13:07.007Z,11.93
2023-04-22T07:15:35.763Z,12.02
2023-04-22T07:18:04.503Z,12.00
2023-04-22T07:20:33.188Z,12.13
2023-04-22T07:23:01.822Z,12.31
2023-04-22T07:25:30.644Z,12.39
2023-04-22T07:27:59.290Z,12.47
2023-04-22T07:30:29.248Z,12.57
2023-04-22T07:32:57.872Z,12.66
2023-04-22T07:35:28.509Z,12.78
2023-04-22T07:37:57.191Z,12.85
2023-04-22T07:40:25.783Z,12.87
2023-04-22T07:42:54.366Z,12.92
2023-04-22T07:45:22.979Z,13.02
2023-04-22T07:47:52.998Z,13.16
2023-04-22T07:50:21.810Z,13.37
2023-04-22T07:52:50.452Z,13.44
2023-04-22T07:55:19.284Z,13.57
2023-04-22T07:57:47.870Z,13.60
2023-04-22T08:00:17.107Z,13.79
2023-04-22T08:02:46.889Z,13.98
2023-04-22T08:05:17.233Z,14.10
2023-04-22T08:07:46.305Z,14.15
2023-04-22T08:10:14.940Z,14.20
2023-04-22T08:12:43.580Z,14.31
2023-04-22T08:15:12.570Z,14.36
2023-04-22T08:17:41.213Z,14.48
2023-04-22T08:20:10.565Z,14.54
2023-04-22T08:22:40.537Z,14.63
2023-04-22T08:25:09.933Z,14.67
2023-04-22T08:27:38.888Z,14.77
2023-04-22T08:30:08.759Z,14.84
2023-04-22T08:32:37.396Z,14.98
2023-04-22T08:35:06.595Z,15.08
2023-04-22T08:37:35.543Z,15.14
2023-04-22T08:40:06.777Z,15.18
2023-04-22T08:42:35.586Z,15.33
2023-04-22T08:45:04.593Z,15.51
2023-04-22T08:47:33.995Z,15.70
2023-04-22T08:50:04.213Z,15.97
2023-04-22T08:52:33.135Z,16.19
2023-04-22T08:55:02.040Z,16.39
2023-04-22T08:57:32.743Z,16.50
2023-04-22T09:00:01.578Z,16.67
2023-04-22T09:02:33.098Z,16.72
2023-04-22T09:05:03.298Z,16.88
2023-04-22T09:07:33.187Z,16.98
2023-04-22T09:10:02.027Z,17.07
2023-04-22T09:12:32.056Z,17.21
2023-04-22T09:15:00.813Z,17.37
2023-04-22T09:17:33.381Z,17.48
2023-04-22T09:20:03.497Z,17.70
2023-04-22T09:22:39.138Z,17.89
2023-04-22T09:25:15.677Z,17.90
2023-04-22T09:27:49.708Z,18.03
2023-04-22T09:30:19.795Z,17.94
2023-04-22T09:32:55.701Z,17.97
2023-04-22T09:35:27.914Z,18.00
2023-04-22T09:37:56.614Z,18.09
2023-04-22T09:40:25.846Z,18.18
2023-04-22T09:42:57.176Z,18.27
2023-04-22T09:45:27.515Z,18.43
2023-04-22T09:47:57.198Z,18.56
2023-04-22T09:50:27.587Z,18.51
2023-04-22T09:52:57.658Z,18.63
2023-04-22T09:55:28.441Z,18.77
2023-04-22T09:57:58.957Z,18.89
2023-04-22T10:00:30.729Z,19.05
2023-04-22T10:02:59.573Z,19.13
2023-04-22T10:05:29.577Z,19.30
2023-04-22T10:07:58.364Z,19.44
2023-04-22T10:10:27.338Z,19.58
2023-04-22T10:12:56.044Z,19.47
2023-04-22T10:15:27.140Z,19.79
2023-04-22T10:17:56.121Z,19.91
2023-04-22T10:20:24.905Z,20.11
2023-04-22T10:22:54.648Z,20.32
2023-04-22T10:25:24.526Z,20.55
2023-04-22T10:27:57.013Z,20.46
2023-04-22T10:30:30.889Z,20.77
2023-04-22T10:33:47.134Z,20.97
2023-04-22T10:36:18.356Z,21.24
2023-04-22T10:39:17.590Z,21.43
2023-04-22T10:41:52.977Z,21.55
2023-04-22T10:44:22.544Z,21.68
2023-04-22T10:46:59.804Z,21.86
2023-04-22T10:49:31.249Z,21.92
2023-04-22T10:52:01.129Z,22.05
2023-04-22T10:54:58.982Z,22.02
2023-04-22T10:57:39.948Z,21.98
2023-04-22T11:00:20.675Z,21.95
2023-04-22T11:02:54.506Z,22.00
2023-04-22T11:05:26.155Z,22.11
2023-04-22T11:07:56.740Z,22.23
2023-04-22T11:10:44.109Z,22.45
2023-04-22T11:13:15.652Z,22.58
2023-04-22T11:15:45.941Z,22.63
2023-04-22T11:18:19.298Z,22.70
2023-04-22T11:20:49.430Z,22.78
2023-04-22T11:23:24.311Z,22.75
2023-04-22T11:25:57.541Z,22.84
2023-04-22T11:28:26.411Z,22.93
2023-04-22T11:31:02.692Z,22.88
2023-04-22T11:33:33.376Z,23.05
2023-04-22T11:36:02.112Z,23.05
2023-04-22T11:38:30.723Z,22.93
2023-04-22T11:40:59.346Z,23.07
2023-04-22T11:43:27.966Z,23.26
2023-04-22T11:45:57.774Z,23.42
2023-04-22T11:48:26.689Z,23.31
2023-04-22T11:51:11.066Z,23.35
2023-04-22T11:53:41.234Z,23.31
2023-04-22T11:56:09.984Z,23.41
2023-04-22T11:58:40.739Z,23.38
2023-04-22T12:01:13.644Z,23.54
2023-04-22T12:03:42.689Z,23.66
2023-04-22T12:06:12.981Z,23.90
2023-04-22T12:08:43.092Z,23.99
2023-04-22T12:11:13.102Z,23.87
2023-04-22T12:13:43.481Z,23.91
2023-04-22T12:16:13.777Z,23.73
2023-04-22T12:18:43.440Z,23.47
2023-04-22T12:21:14.434Z,23.42
2023-04-22T12:23:43.715Z,23.21
2023-04-22T12:26:12.921Z,23.16
2023-04-22T12:28:42.504Z,23.16
2023-04-22T12:31:11.318Z,23.09
2023-04-22T12:33:39.960Z,22.78
2023-04-22T12:36:08.787Z,22.77
2023-04-22T12:38:39.347Z,22.94
2023-04-22T12:41:08.820Z,23.11
2023-04-22T12:43:37.771Z,23.34
2023-04-22T12:46:07.929Z,23.38
2023-04-22T12:48:37.489Z,23.47
2023-04-22T12:51:07.210Z,23.34
2023-04-22T12:53:36.153Z,23.27
2023-04-22T12:56:06.683Z,23.17
2023-04-22T12:58:35.363Z,23.08
2023-04-22T13:01:03.977Z,22.94
2023-04-22T13:03:32.772Z,22.83
2023-04-22T13:06:01.654Z,22.71
2023-04-22T13:08:30.701Z,22.57
2023-04-22T13:11:00.195Z,22.38
2023-04-22T13:13:30.211Z,22.20
2023-04-22T13:15:58.801Z,22.28
2023-04-22T13:18:27.417Z,22.28
2023-04-22T13:20:56.771Z,22.23
2023-04-22T13:23:25.797Z,22.08
2023-04-22T13:25:54.549Z,22.09
2023-04-22T13:28:23.271Z,22.04
2023-04-22T13:30:53.277Z,21.99
2023-04-22T13:33:21.893Z,21.95
2023-04-22T13:35:50.462Z,21.94
2023-04-22T13:38:19.399Z,21.94
2023-04-22T13:40:48.080Z,21.91
2023-04-22T13:43:16.719Z,21.83
2023-04-22T13:45:45.530Z,21.77
2023-04-22T13:48:15.849Z,21.66
2023-04-22T13:50:44.754Z,21.59
2023-04-22T13:53:14.160Z,21.53
2023-04-22T13:55:43.311Z,21.62
2023-04-22T13:58:12.009Z,21.62
2023-04-22T14:00:40.814Z,21.61
2023-04-22T14:03:09.655Z,21.61
2023-04-22T14:05:39.764Z,21.57
2023-04-22T14:08:08.393Z,21.49
2023-04-22T14:10:37.038Z,21.45
2023-04-22T14:13:05.686Z,21.40
2023-04-22T14:15:34.388Z,21.36
2023-04-22T14:18:03.026Z,21.24
2023-04-22T14:20:31.649Z,21.16
2023-04-22T14:23:01.871Z,21.03
2023-04-22T14:25:30.544Z,21.02
2023-04-22T14:27:59.152Z,20.94
2023-04-22T14:30:27.807Z,20.93
2023-04-22T14:32:56.841Z,20.88
2023-04-22T14:35:25.759Z,20.87
2023-04-22T14:37:54.462Z,20.91
2023-04-22T14:40:27.783Z,20.86
2023-04-22T14:42:56.841Z,20.79
2023-04-22T14:45:26.225Z,20.77
2023-04-22T14:47:54.964Z,20.79
2023-04-22T14:50:23.650Z,20.75
2023-04-22T14:52:52.684Z,20.71
2023-04-22T14:55:23.661Z,20.67
2023-04-22T14:57:56.558Z,20.64
2023-04-22T15:00:25.897Z,20.57
2023-04-22T15:02:55.190Z,20.52
2023-04-22T15:05:24.116Z,20.51
2023-04-22T15:07:52.871Z,20.51
2023-04-22T15:10:22.209Z,20.53
2023-04-22T15:12:50.877Z,20.63
2023-04-22T15:15:21.322Z,20.71
2023-04-22T15:17:50.067Z,20.73
2023-04-22T15:20:18.745Z,20.75
2023-04-22T15:22:47.394Z,20.73
2023-04-22T15:25:18.028Z,20.68
2023-04-22T15:27:47.457Z,20.59
2023-04-22T15:30:16.263Z,20.60
2023-04-22T15:32:46.218Z,20.61
2023-04-22T15:35:14.984Z,20.58
2023-04-22T15:37:43.610Z,20.43
2023-04-22T15:40:12.261Z,20.51
2023-04-22T15:42:40.862Z,20.52
2023-04-22T15:45:10.162Z,20.55
2023-04-22T15:47:38.837Z,20.52
2023-04-22T15:50:10.334Z,20.52
2023-04-22T15:52:39.204Z,20.50
2023-04-22T15:55:09.331Z,20.50
2023-04-22T15:57:38.008Z,20.44
2023-04-22T16:00:12.580Z,20.45
2023-04-22T16:02:42.938Z,20.41
2023-04-22T16:05:13.944Z,20.34
2023-04-22T16:07:42.661Z,20.30
2023-04-22T16:10:11.984Z,20.23
2023-04-22T16:12:40.587Z,20.20
2023-04-22T16:15:11.372Z,20.13
2023-04-22T16:17:40.108Z,20.05
2023-04-22T16:20:10.663Z,20.02
2023-04-22T16:22:40.710Z,19.98
2023-04-22T16:25:10.736Z,19.91
2023-04-22T16:27:39.436Z,19.86
2023-04-22T16:30:09.083Z,19.82
2023-04-22T16:32:37.895Z,19.81
2023-04-22T16:35:07.633Z,19.81
2023-04-22T16:37:36.665Z,19.73
2023-04-22T16:40:08.783Z,19.69
2023-04-22T16:42:37.461Z,19.64
2023-04-22T16:45:07.864Z,19.61
2023-04-22T16:47:36.604Z,19.59
2023-04-22T16:50:06.146Z,19.58
2023-04-22T16:52:34.779Z,19.56
2023-04-22T16:55:05.157Z,19.51
2023-04-22T16:57:35.183Z,19.46
2023-04-22T17:00:05.772Z,19.44
2023-04-22T17:02:34.751Z,19.39
2023-04-22T17:05:04.387Z,19.34
2023-04-22T17:07:32.995Z,19.29
2023-04-22T17:10:01.610Z,19.26
2023-04-22T17:12:30.923Z,19.24
2023-04-22T17:15:01.310Z,19.19
2023-04-22T17:17:30.050Z,19.10
2023-04-22T17:19:58.689Z,19.06
2023-04-22T17:22:27.965Z,19.02
2023-04-22T17:24:58.654Z,19.02
2023-04-22T17:27:27.308Z,19.03
2023-04-22T17:29:56.205Z,19.01
2023-04-22T17:32:26.410Z,18.93
2023-04-22T17:34:55.046Z,18.91
2023-04-22T17:37:23.640Z,18.89
2023-04-22T17:39:52.804Z,18.86
2023-04-22T17:42:21.533Z,18.85
2023-04-22T17:44:50.771Z,18.78
2023-04-22T17:47:19.433Z,18.78
2023-04-22T17:49:49.372Z,18.75
2023-04-22T17:52:18.009Z,18.68
2023-04-22T17:54:46.666Z,18.67
2023-04-22T17:57:15.294Z,18.67
2023-04-22T17:59:43.879Z,18.60
2023-04-22T18:02:13.062Z,18.60
2023-04-22T18:04:41.793Z,18.58
2023-04-22T18:07:11.765Z,18.60
2023-04-22T18:09:40.549Z,18.52
2023-04-22T18:12:09.439Z,18.51
2023-04-22T18:14:38.124Z,18.45
2023-04-22T18:17:06.975Z,18.39
2023-04-22T18:19:35.593Z,18.35
2023-04-22T18:22:04.224Z,18.37
2023-04-22T18:24:34.250Z,18.21
2023-04-22T18:27:02.850Z,18.18
2023-04-22T18:29:31.503Z,18.11
2023-04-22T18:32:00.181Z,17.92
2023-04-22T18:34:29.354Z,17.99
2023-04-22T18:36:58.073Z,17.82
2023-04-22T18:39:26.806Z,17.72
2023-04-22T18:41:56.748Z,17.67
2023-04-22T18:44:25.623Z,17.64
2023-04-22T18:46:54.803Z,17.39
2023-04-22T18:49:23.464Z,17.43
2023-04-22T18:51:52.122Z,17.45
2023-04-22T18:54:20.865Z,17.37
2023-04-22T18:56:49.566Z,17.24
2023-04-22T18:59:19.578Z,17.17
2023-04-22T19:01:48.319Z,16.98
2023-04-22T19:04:17.134Z,17.02
2023-04-22T19:06:45.850Z,16.96
2023-04-22T19:09:14.450Z,16.87
2023-04-22T19:11:43.198Z,16.83
2023-04-22T19:14:13.722Z,16.85
2023-04-22T19:16:43.770Z,16.73
2023-04-22T19:19:12.802Z,16.60
2023-04-22T19:21:41.491Z,16.48
2023-04-22T19:24:10.773Z,16.46
2023-04-22T19:26:39.449Z,16.38
2023-04-22T19:29:08.282Z,16.33
2023-04-22T19:31:36.977Z,16.21
2023-04-22T19:34:06.972Z,16.19
2023-04-22T19:36:35.585Z,16.15
2023-04-22T19:39:06.030Z,16.13
2023-04-22T19:41:35.103Z,16.08
2023-04-22T19:44:04.400Z,16.02
2023-04-22T19:46:33.137Z,15.97
2023-04-22T19:49:02.245Z,15.96
2023-04-22T19:51:32.585Z,15.89
2023-04-22T19:54:02.469Z,15.86
2023-04-22T19:56:31.519Z,15.79
2023-04-22T19:59:00.483Z,15.79
2023-04-22T20:01:29.605Z,15.80
2023-04-22T20:03:59.187Z,15.83
2023-04-22T20:06:28.596Z,15.81
2023-04-22T20:08:59.854Z,15.80
2023-04-22T20:11:29.423Z,15.79
2023-04-22T20:13:58.530Z,15.74
2023-04-22T20:16:27.902Z,15.68
2023-04-22T20:18:56.725Z,15.70
2023-04-22T20:21:25.642Z,15.73
2023-04-22T20:23:55.378Z,15.71
2023-04-22T20:26:26.165Z,15.73
2023-04-22T20:28:54.928Z,15.69
2023-04-22T20:31:24.070Z,15.68
2023-04-22T20:33:52.986Z,15.67
2023-04-22T20:36:22.452Z,15.58
2023-04-22T20:38:52.077Z,15.54
2023-04-22T20:41:20.914Z,15.49
2023-04-22T20:43:51.004Z,15.47
2023-04-22T20:46:22.145Z,15.45
2023-04-22T20:48:51.578Z,15.41
2023-04-22T20:51:20.297Z,15.39
2023-04-22T20:53:50.513Z,15.35
2023-04-22T20:56:21.345Z,15.35
2023-04-22T20:58:51.308Z,15.33
2023-04-22T21:01:19.930Z,15.30
2023-04-22T21:03:52.454Z,15.30
2023-04-22T21:06:21.908Z,15.30
2023-04-22T21:08:51.005Z,15.28
2023-04-22T21:11:20.144Z,15.26
2023-04-22T21:13:49.333Z,15.23
2023-04-22T21:16:20.470Z,15.24
2023-04-22T21:18:49.543Z,15.27
2023-04-22T21:21:19.068Z,15.29
2023-04-22T21:23:48.119Z,15.35
2023-04-22T21:26:17.747Z,15.28
2023-04-22T21:28:46.803Z,15.30
2023-04-22T21:31:15.935Z,15.24
2023-04-22T21:33:45.973Z,15.19
2023-04-22T21:36:14.801Z,15.17
2023-04-22T21:38:43.504Z,15.13
2023-04-22T21:41:12.328Z,15.10
2023-04-22T21:43:40.932Z,15.13
2023-04-22T21:46:09.901Z,15.08
2023-04-22T21:48:38.579Z,15.07
2023-04-22T21:51:08.598Z,15.06
2023-04-22T21:53:37.280Z,15.05
2023-04-22T21:56:06.306Z,15.00
2023-04-22T21:58:34.934Z,14.95
2023-04-22T22:01:03.532Z,14.85
2023-04-22T22:03:32.333Z,14.85
2023-04-22T22:06:01.076Z,14.80
2023-04-22T22:08:31.085Z,14.76
2023-04-22T22:10:59.768Z,14.80
2023-04-22T22:13:28.335Z,14.76
2023-04-22T22:15:57.419Z,14.76
2023-04-22T22:18:26.249Z,14.79
2023-04-22T22:20:54.854Z,14.77
2023-04-22T22:23:23.497Z,14.74
2023-04-22T22:25:53.433Z,14.72
2023-04-22T22:28:22.058Z,14.69
2023-04-22T22:30:50.676Z,14.63
2023-04-22T22:33:19.328Z,14.66
2023-04-22T22:35:47.964Z,14.65
2023-04-22T22:38:16.574Z,14.61
2023-04-22T22:40:45.209Z,14.57
2023-04-22T22:43:15.229Z,14.55
2023-04-22T22:45:43.927Z,14.55
2023-04-22T22:48:12.631Z,14.54
2023-04-22T22:50:41.537Z,14.66
2023-04-22T22:53:10.253Z,14.61
2023-04-22T22:55:38.904Z,14.59
2023-04-22T22:58:07.529Z,14.54
2023-04-22T23:00:37.577Z,14.52
2023-04-22T23:03:06.816Z,14.45
2023-04-22T23:05:36.586Z,14.47
2023-04-22T23:08:05.677Z,14.40
2023-04-22T23:10:34.290Z,14.36
2023-04-22T23:13:02.865Z,14.36
2023-04-22T23:15:31.526Z,14.37
2023-04-22T23:18:01.599Z,14.37
2023-04-22T23:20:31.504Z,14.43
2023-04-22T23:23:02.352Z,14.42
2023-04-22T23:25:31.455Z,14.36
2023-04-22T23:28:01.198Z,14.35
2023-04-22T23:30:30.555Z,14.25
2023-04-22T23:33:03.061Z,14.22
2023-04-22T23:35:33.128Z,14.19
2023-04-22T23:38:02.242Z,14.08
2023-04-22T23:40:30.866Z,14.12
2023-04-22T23:42:59.420Z,14.12
2023-04-22T23:45:28.006Z,14.10
2023-04-22T23:47:56.700Z,14.10
2023-04-22T23:50:26.635Z,14.06
2023-04-22T23:52:55.837Z,14.07
2023-04-22T23:55:25.460Z,14.10
2023-04-22T23:57:55.624Z,14.14
